Raymond, Canada
Current Conditions -  °F | °C
As of 9:00 AM on Thursday 29 Jan 2015 (Local Time) from CYQL Reporting Station
Few Clouds Few Clouds  
Wind Chill: 15°   Ceiling: Unl
Heat Index: 28°   Visibility: 40mi
Dew Point: 23°   Wind: 21mph
Humidity: 80%   Direction: 200°SSW
Pressure: 30.25"   Gusts: NA
Location:  49.47°N, 112.66°W
Report Text: CYQL 291600Z 20018KT 40SM FEW130 FEW280 M02/M05 A3025 RMK AC1CI1 SLP288
Loading
Personal Weather Stations






























Interactive Weather Map New forecast layout! Learn more

10-Day Weather Forecast

Advertisements
Track Severe Weather on mobile